createdAt,value
2018-04-10T00:01:44.898Z,14.20
2018-04-10T00:04:12.659Z,14.20
2018-04-10T00:06:40.412Z,14.20
2018-04-10T00:09:08.171Z,14.20
2018-04-10T00:11:35.170Z,14.20
2018-04-10T00:14:02.161Z,14.20
2018-04-10T00:16:29.148Z,14.20
2018-04-10T00:18:56.152Z,14.20
2018-04-10T00:21:23.133Z,14.20
2018-04-10T00:23:50.137Z,14.20
2018-04-10T00:26:17.134Z,14.20
2018-04-10T00:28:44.133Z,14.10
2018-04-10T00:31:11.121Z,14.10
2018-04-10T00:33:38.126Z,14.20
2018-04-10T00:36:05.117Z,14.20
2018-04-10T00:38:32.109Z,14.10
2018-04-10T00:40:59.097Z,14.10
2018-04-10T00:43:26.089Z,14.20
2018-04-10T00:45:53.077Z,14.20
2018-04-10T00:48:20.073Z,14.20
2018-04-10T00:50:47.064Z,14.10
2018-04-10T00:53:20.756Z,14.10
2018-04-10T00:55:47.752Z,14.10
2018-04-10T00:58:14.749Z,14.10
2018-04-10T01:00:42.507Z,14.10
2018-04-10T01:03:10.263Z,14.20
2018-04-10T01:05:37.258Z,14.20
2018-04-10T01:08:04.256Z,14.10
2018-04-10T01:10:32.013Z,14.10
2018-04-10T01:12:58.993Z,14.10
2018-04-10T01:15:25.986Z,14.10
2018-04-10T01:17:52.974Z,14.10
2018-04-10T01:20:20.733Z,14.10
2018-04-10T01:22:48.485Z,14.10
2018-04-10T01:25:16.239Z,14.10
2018-04-10T01:27:43.233Z,14.10
2018-04-10T01:30:10.223Z,14.10
2018-04-10T01:32:37.208Z,14.10
2018-04-10T01:35:04.204Z,14.10
2018-04-10T01:37:31.199Z,14.10
2018-04-10T01:39:58.206Z,14.10
2018-04-10T01:42:25.197Z,14.10
2018-04-10T01:44:52.186Z,14.10
2018-04-10T01:47:19.173Z,14.10
2018-04-10T01:49:46.935Z,14.10
2018-04-10T01:52:14.701Z,14.10
2018-04-10T01:54:42.455Z,14.10
2018-04-10T01:57:10.210Z,14.10
2018-04-10T01:59:37.202Z,14.10
2018-04-10T02:02:04.226Z,14.10
2018-04-10T02:04:31.969Z,14.10
2018-04-10T02:06:59.742Z,14.10
2018-04-10T02:09:27.510Z,14.10
2018-04-10T02:11:55.258Z,14.10
2018-04-10T02:14:22.257Z,14.10
2018-04-10T02:16:49.249Z,14.10
2018-04-10T02:19:17.004Z,14.10
2018-04-10T02:21:43.997Z,14.10
2018-04-10T02:24:10.994Z,14.10
2018-04-10T02:26:37.981Z,14.10
2018-04-10T02:29:04.973Z,14.10
2018-04-10T02:31:31.957Z,14.10
2018-04-10T02:33:59.853Z,14.10
2018-04-10T02:36:26.850Z,14.10
2018-04-10T02:38:53.851Z,14.10
2018-04-10T02:41:20.838Z,14.10
2018-04-10T02:43:47.849Z,14.10
2018-04-10T02:46:14.841Z,14.10
2018-04-10T02:48:42.624Z,14.10
2018-04-10T02:51:09.617Z,14.10
2018-04-10T02:53:36.597Z,14.10
2018-04-10T02:56:04.357Z,14.10
2018-04-10T02:58:32.109Z,14.10
2018-04-10T03:00:59.100Z,14.10
2018-04-10T03:03:26.088Z,14.10
2018-04-10T03:05:53.085Z,14.10
2018-04-10T03:08:20.078Z,14.10
2018-04-10T03:10:47.082Z,14.10
2018-04-10T03:13:14.073Z,14.10
2018-04-10T03:15:41.066Z,14.10
2018-04-10T03:18:08.070Z,14.10
2018-04-10T03:20:35.066Z,14.00
2018-04-10T03:23:02.057Z,14.10
2018-04-10T03:25:29.053Z,14.10
2018-04-10T03:27:56.041Z,14.10
2018-04-10T03:30:23.029Z,14.00
2018-04-10T03:32:50.020Z,14.10
2018-04-10T03:35:17.009Z,14.10
2018-04-10T03:37:44.765Z,14.10
2018-04-10T03:40:12.709Z,14.10
2018-04-10T03:42:39.694Z,14.00
2018-04-10T03:45:07.454Z,14.10
2018-04-10T03:47:35.205Z,14.10
2018-04-10T03:50:02.965Z,14.00
2018-04-10T03:52:29.965Z,14.00
2018-04-10T03:54:56.947Z,14.10
2018-04-10T03:57:23.956Z,14.00
2018-04-10T03:59:50.945Z,14.00
2018-04-10T04:02:17.940Z,14.00
2018-04-10T04:04:44.930Z,14.00
2018-04-10T04:07:11.917Z,14.00
2018-04-10T04:09:38.913Z,14.00
2018-04-10T04:12:05.905Z,14.00
2018-04-10T04:14:32.898Z,14.00
2018-04-10T04:17:05.869Z,14.10
2018-04-10T04:19:38.933Z,14.00
2018-04-10T04:22:11.889Z,14.00
2018-04-10T04:24:39.659Z,14.00
2018-04-10T04:27:07.414Z,14.00
2018-04-10T04:29:35.188Z,14.00
2018-04-10T04:32:02.946Z,14.00
2018-04-10T04:34:30.698Z,14.00
2018-04-10T04:36:57.689Z,14.00
2018-04-10T04:39:24.745Z,14.00
2018-04-10T04:41:51.738Z,14.00
2018-04-10T04:44:18.952Z,14.00
2018-04-10T04:46:45.937Z,14.00
2018-04-10T04:49:13.703Z,14.00
2018-04-10T04:51:40.685Z,14.00
2018-04-10T04:54:07.867Z,14.00
2018-04-10T04:56:34.889Z,14.00
2018-04-10T04:59:01.882Z,14.00
2018-04-10T05:01:28.968Z,14.00
2018-04-10T05:03:56.034Z,14.00
2018-04-10T05:06:23.039Z,13.90
2018-04-10T05:08:50.800Z,13.80
2018-04-10T05:11:18.558Z,13.80
2018-04-10T05:13:46.319Z,13.80
2018-04-10T05:16:15.467Z,13.80
2018-04-10T05:18:42.458Z,13.80
2018-04-10T05:21:09.454Z,13.80
2018-04-10T05:23:36.445Z,13.80
2018-04-10T05:26:03.436Z,13.80
2018-04-10T05:28:30.449Z,13.90
2018-04-10T05:30:58.197Z,13.90
2018-04-10T05:33:25.209Z,13.90
2018-04-10T05:35:52.193Z,13.90
2018-04-10T05:38:19.949Z,13.90
2018-04-10T05:40:46.937Z,13.90
2018-04-10T05:43:13.937Z,13.90
2018-04-10T05:45:40.929Z,13.90
2018-04-10T05:48:07.918Z,13.90
2018-04-10T05:50:34.957Z,13.90
2018-04-10T05:53:01.966Z,13.90
2018-04-10T05:55:28.960Z,13.90
2018-04-10T05:57:55.949Z,13.90
2018-04-10T06:00:22.946Z,13.90
2018-04-10T06:02:49.937Z,13.90
2018-04-10T06:05:16.930Z,13.90
2018-04-10T06:07:43.918Z,13.90
2018-04-10T06:10:11.674Z,13.90
2018-04-10T06:12:39.433Z,13.90
2018-04-10T06:15:07.185Z,13.90
2018-04-10T06:17:34.182Z,13.90
2018-04-10T06:20:01.169Z,13.90
2018-04-10T06:22:28.166Z,13.90
2018-04-10T06:24:55.182Z,13.90
2018-04-10T06:27:22.939Z,13.90
2018-04-10T06:29:49.930Z,13.90
2018-04-10T06:32:16.913Z,13.90
2018-04-10T06:34:43.913Z,13.90
2018-04-10T06:37:10.904Z,13.90
2018-04-10T06:39:37.902Z,13.90
2018-04-10T06:42:04.893Z,13.80
2018-04-10T06:44:31.890Z,13.90
2018-04-10T06:46:58.883Z,13.90
2018-04-10T06:49:25.879Z,13.90
2018-04-10T06:51:52.874Z,13.90
2018-04-10T06:54:19.898Z,13.90
2018-04-10T06:56:46.909Z,13.90
2018-04-10T06:59:14.679Z,13.90
2018-04-10T07:01:41.725Z,13.90
2018-04-10T07:04:08.681Z,13.90
2018-04-10T07:06:35.671Z,13.90
2018-04-10T07:09:02.671Z,13.80
2018-04-10T07:11:29.682Z,13.90
2018-04-10T07:13:56.677Z,13.90
2018-04-10T07:16:23.669Z,13.90
2018-04-10T07:18:50.665Z,13.90
2018-04-10T07:21:17.666Z,13.90
2018-04-10T07:23:44.654Z,13.90
2018-04-10T07:26:11.645Z,13.90
2018-04-10T07:28:38.646Z,13.90
2018-04-10T07:31:05.638Z,13.80
2018-04-10T07:33:32.661Z,13.90
2018-04-10T07:35:59.677Z,13.90
2018-04-10T07:38:26.665Z,13.90
2018-04-10T07:40:53.665Z,13.90
2018-04-10T07:43:20.649Z,13.90
2018-04-10T07:45:47.646Z,13.90
2018-04-10T07:48:14.638Z,13.90
2018-04-10T07:50:42.404Z,13.80
2018-04-10T07:53:09.395Z,13.80
2018-04-10T07:55:37.157Z,13.90
2018-04-10T07:58:04.915Z,13.90
2018-04-10T08:00:32.673Z,13.90
2018-04-10T08:03:00.440Z,13.90
2018-04-10T08:05:28.206Z,13.90
2018-04-10T08:07:55.967Z,13.90
2018-04-10T08:10:23.718Z,13.90
2018-04-10T08:12:50.709Z,13.90
2018-04-10T08:15:17.705Z,13.90
2018-04-10T08:17:44.702Z,13.90
2018-04-10T08:20:11.713Z,13.90
2018-04-10T08:22:38.698Z,13.90
2018-04-10T08:25:05.685Z,13.90
2018-04-10T08:27:32.675Z,13.90
2018-04-10T08:29:59.674Z,13.90
2018-04-10T08:32:26.669Z,13.90
2018-04-10T08:34:53.685Z,13.90
2018-04-10T08:37:21.438Z,13.90
2018-04-10T08:39:48.430Z,13.90
2018-04-10T08:42:15.413Z,13.90
2018-04-10T08:44:42.406Z,13.90
2018-04-10T08:47:09.394Z,13.90
2018-04-10T08:49:36.385Z,13.90
2018-04-10T08:52:04.172Z,13.90
2018-04-10T08:54:31.161Z,13.90
2018-04-10T08:56:58.161Z,13.90
2018-04-10T08:59:25.198Z,13.90
2018-04-10T09:01:52.162Z,13.90
2018-04-10T09:04:19.162Z,13.90
2018-04-10T09:06:46.939Z,13.90
2018-04-10T09:09:14.702Z,13.90
2018-04-10T09:11:42.456Z,13.90
2018-04-10T09:14:09.446Z,13.90
2018-04-10T09:16:36.438Z,13.90
2018-04-10T09:19:03.433Z,13.90
2018-04-10T09:21:30.419Z,13.90
2018-04-10T09:23:57.417Z,13.90
2018-04-10T09:26:24.410Z,13.90
2018-04-10T09:28:51.412Z,13.90
2018-04-10T09:31:18.406Z,13.90
2018-04-10T09:33:45.401Z,13.90
2018-04-10T09:36:12.389Z,13.90
2018-04-10T09:38:39.426Z,13.90
2018-04-10T09:41:06.462Z,14.00
2018-04-10T09:43:33.510Z,14.00
2018-04-10T09:46:00.454Z,14.00
2018-04-10T09:48:27.457Z,14.00
2018-04-10T09:50:54.454Z,14.00
2018-04-10T09:53:21.482Z,14.00
2018-04-10T09:55:48.478Z,14.00
2018-04-10T09:58:15.480Z,14.00
2018-04-10T10:00:42.478Z,14.00
2018-04-10T10:03:09.474Z,14.00
2018-04-10T10:05:36.463Z,14.00
2018-04-10T10:08:04.241Z,14.00
2018-04-10T10:10:32.007Z,14.00
2018-04-10T10:12:59.767Z,14.00
2018-04-10T10:15:27.534Z,14.00
2018-04-10T10:17:54.526Z,14.00
2018-04-10T10:20:21.518Z,14.00
2018-04-10T10:22:49.317Z,14.00
2018-04-10T10:25:16.326Z,14.00
2018-04-10T10:27:44.102Z,14.00
2018-04-10T10:30:11.105Z,14.00
2018-04-10T10:32:38.098Z,14.10
2018-04-10T10:35:05.091Z,14.10
2018-04-10T10:37:32.089Z,14.10
2018-04-10T10:39:59.098Z,14.10
2018-04-10T10:42:26.109Z,14.10
2018-04-10T10:44:53.118Z,14.10
2018-04-10T10:47:20.128Z,14.10
2018-04-10T10:49:47.147Z,14.10
2018-04-10T10:52:14.148Z,14.10
2018-04-10T10:54:41.915Z,14.00
2018-04-10T10:57:09.673Z,14.10
2018-04-10T10:59:37.445Z,14.00
2018-04-10T11:02:04.445Z,14.00
2018-04-10T11:04:31.438Z,14.10
2018-04-10T11:06:58.437Z,14.10
2018-04-10T11:09:25.433Z,14.10
2018-04-10T11:11:52.446Z,14.10
2018-04-10T11:14:19.456Z,14.10
2018-04-10T11:16:46.453Z,14.10
2018-04-10T11:19:14.225Z,14.10
2018-04-10T11:21:41.981Z,14.10
2018-04-10T11:24:09.763Z,14.10
2018-04-10T11:26:36.791Z,14.10
2018-04-10T11:29:04.545Z,14.10
2018-04-10T11:31:31.538Z,14.10
2018-04-10T11:33:58.534Z,14.10
2018-04-10T11:36:25.529Z,14.10
2018-04-10T11:38:52.533Z,14.10
2018-04-10T11:41:20.299Z,14.10
2018-04-10T11:43:48.057Z,14.10
2018-04-10T11:46:15.541Z,14.10
2018-04-10T11:48:42.546Z,14.10
2018-04-10T11:51:09.555Z,14.10
2018-04-10T11:53:36.573Z,14.10
2018-04-10T11:56:04.337Z,14.10
2018-04-10T11:58:32.101Z,14.10
2018-04-10T12:00:59.106Z,14.10
2018-04-10T12:03:26.107Z,14.20
2018-04-10T12:05:53.095Z,14.20
2018-04-10T12:08:20.089Z,14.20
2018-04-10T12:10:47.850Z,14.20
2018-04-10T12:13:14.878Z,14.20
2018-04-10T12:15:42.649Z,14.20
2018-04-10T12:18:10.410Z,14.10
2018-04-10T12:20:38.186Z,14.20
2018-04-10T12:23:05.189Z,14.20
2018-04-10T12:25:32.199Z,14.20
2018-04-10T12:27:59.193Z,14.10
2018-04-10T12:30:26.191Z,14.20
2018-04-10T12:32:53.225Z,14.20
2018-04-10T12:35:20.967Z,14.20
2018-04-10T12:37:48.743Z,14.20
2018-04-10T12:40:16.503Z,14.20
2018-04-10T12:42:44.266Z,14.20
2018-04-10T12:45:12.031Z,14.20
2018-04-10T12:47:39.792Z,14.20
2018-04-10T12:50:07.561Z,14.20
2018-04-10T12:52:35.337Z,14.20
2018-04-10T12:55:02.335Z,14.20
2018-04-10T12:57:29.329Z,14.30
2018-04-10T12:59:56.335Z,14.30
2018-04-10T13:02:23.326Z,14.30
2018-04-10T13:04:50.334Z,14.30
2018-04-10T13:07:17.329Z,14.30
2018-04-10T13:09:44.321Z,14.30
2018-04-10T13:12:12.108Z,14.30
2018-04-10T13:14:39.115Z,14.30
2018-04-10T13:17:06.106Z,14.30
2018-04-10T13:19:33.108Z,14.30
2018-04-10T13:22:00.118Z,14.30
2018-04-10T13:24:27.242Z,14.30
2018-04-10T13:26:55.120Z,14.30
2018-04-10T13:29:22.173Z,14.30
2018-04-10T13:31:49.161Z,14.30
2018-04-10T13:34:16.213Z,14.30
2018-04-10T13:36:43.977Z,14.30
2018-04-10T13:39:10.974Z,14.30
2018-04-10T13:41:37.970Z,14.30
2018-04-10T13:44:04.954Z,14.40
2018-04-10T13:46:31.950Z,14.80
2018-04-10T13:48:58.942Z,14.80
2018-04-10T13:51:25.929Z,14.90
2018-04-10T13:53:52.913Z,14.90
2018-04-10T13:56:20.666Z,14.80
2018-04-10T13:58:47.655Z,14.80
2018-04-10T14:01:14.674Z,14.90
2018-04-10T14:03:41.685Z,14.90
2018-04-10T14:06:08.690Z,14.90
2018-04-10T14:08:35.678Z,14.90
2018-04-10T14:11:02.684Z,14.80
2018-04-10T14:13:29.677Z,14.80
2018-04-10T14:15:57.434Z,14.70
2018-04-10T14:18:24.422Z,14.70
2018-04-10T14:20:51.430Z,14.70
2018-04-10T14:23:18.420Z,14.70
2018-04-10T14:25:45.410Z,14.60
2018-04-10T14:28:12.398Z,14.70
2018-04-10T14:30:40.149Z,14.70
2018-04-10T14:33:07.915Z,14.70
2018-04-10T14:35:35.673Z,14.60
2018-04-10T14:38:03.442Z,14.70
2018-04-10T14:40:31.204Z,14.70
2018-04-10T14:42:58.200Z,14.70
2018-04-10T14:45:25.193Z,14.70
2018-04-10T14:47:52.966Z,14.80
2018-04-10T14:50:19.960Z,14.70
2018-04-10T14:52:46.951Z,14.80
2018-04-10T14:55:14.704Z,14.80
2018-04-10T14:57:41.692Z,14.80
2018-04-10T15:00:08.686Z,14.80
2018-04-10T15:02:35.682Z,14.80
2018-04-10T15:05:02.691Z,14.80
2018-04-10T15:07:29.680Z,14.70
2018-04-10T15:09:56.674Z,14.70
2018-04-10T15:12:23.665Z,14.70
2018-04-10T15:14:50.673Z,14.70
2018-04-10T15:17:18.442Z,14.70
2018-04-10T15:19:46.199Z,14.70
2018-04-10T15:22:13.191Z,14.60
2018-04-10T15:24:40.364Z,14.70
2018-04-10T15:27:07.872Z,14.70
2018-04-10T15:29:34.871Z,14.60
2018-04-10T15:32:01.866Z,14.70
2018-04-10T15:34:28.853Z,14.70
2018-04-10T15:36:55.842Z,14.70
2018-04-10T15:39:24.631Z,14.70
2018-04-10T15:41:51.663Z,14.60
2018-04-10T15:44:18.678Z,14.70
2018-04-10T15:46:45.745Z,14.60
2018-04-10T15:49:12.744Z,14.70
2018-04-10T15:51:39.741Z,14.70
2018-04-10T15:54:06.793Z,14.70
2018-04-10T15:56:33.781Z,14.70
2018-04-10T15:59:00.831Z,14.70
2018-04-10T16:01:27.813Z,14.70
2018-04-10T16:03:54.832Z,14.70
2018-04-10T16:06:21.815Z,14.70
2018-04-10T16:08:48.813Z,14.70
2018-04-10T16:11:15.874Z,14.70
2018-04-10T16:13:42.874Z,14.70
2018-04-10T16:16:10.642Z,14.70
2018-04-10T16:18:38.421Z,14.60
2018-04-10T16:21:05.445Z,14.60
2018-04-10T16:23:33.204Z,14.70
2018-04-10T16:26:00.203Z,14.60
2018-04-10T16:28:27.190Z,14.70
2018-04-10T16:30:54.189Z,14.70
2018-04-10T16:33:21.174Z,14.70
2018-04-10T16:35:48.165Z,14.70
2018-04-10T16:38:15.169Z,14.70
2018-04-10T16:40:42.165Z,14.60
2018-04-10T16:43:09.177Z,14.70
2018-04-10T16:45:36.999Z,14.70
2018-04-10T16:48:04.145Z,14.60
2018-04-10T16:50:31.145Z,14.70
2018-04-10T16:52:58.905Z,14.70
2018-04-10T16:57:35.403Z,14.70
2018-04-10T17:03:57.281Z,15.00
2018-04-10T17:06:24.286Z,15.00
2018-04-10T17:08:52.238Z,15.00
2018-04-10T17:11:19.236Z,15.00
2018-04-10T17:13:46.218Z,15.00
2018-04-10T17:16:13.225Z,15.00
2018-04-10T17:18:40.219Z,15.00
2018-04-10T17:21:07.214Z,14.90
2018-04-10T17:23:34.226Z,14.90
2018-04-10T17:26:01.998Z,14.90
2018-04-10T17:28:29.760Z,14.90
2018-04-10T17:30:57.526Z,14.90
2018-04-10T17:33:25.324Z,14.90
2018-04-10T17:35:52.300Z,14.90
2018-04-10T17:38:19.310Z,14.90
2018-04-10T17:40:46.353Z,14.90
2018-04-10T17:43:13.369Z,14.90
2018-04-10T17:45:40.632Z,14.90
2018-04-10T17:48:07.787Z,14.90
2018-04-10T17:53:00.072Z,14.90
2018-04-10T17:55:27.093Z,14.90
2018-04-10T17:57:54.082Z,14.90
2018-04-10T18:00:21.091Z,14.90
2018-04-10T18:02:48.086Z,14.90
2018-04-10T18:05:15.081Z,14.90
2018-04-10T18:07:42.071Z,14.90
2018-04-10T18:10:09.085Z,14.90
2018-04-10T18:12:36.191Z,14.90
2018-04-10T18:15:04.952Z,14.90
2018-04-10T18:17:32.901Z,14.80
2018-04-10T18:19:59.949Z,14.80
2018-04-10T18:22:26.949Z,14.80
2018-04-10T18:24:53.942Z,14.80
2018-04-10T18:27:20.937Z,14.90
2018-04-10T18:29:47.933Z,14.80
2018-04-10T18:32:14.925Z,14.80
2018-04-10T18:34:41.928Z,14.80
2018-04-10T18:37:08.931Z,14.80
2018-04-10T18:39:35.918Z,14.80
2018-04-10T18:42:02.923Z,14.90
2018-04-10T18:44:29.922Z,14.80
2018-04-10T18:46:56.940Z,14.80
2018-04-10T18:49:23.920Z,14.80
2018-04-10T18:51:50.930Z,14.80
2018-04-10T18:54:17.931Z,14.80
2018-04-10T18:56:45.700Z,14.80
2018-04-10T18:59:13.454Z,14.80
2018-04-10T19:01:41.222Z,14.80
2018-04-10T19:04:09.915Z,14.80
2018-04-10T19:06:36.920Z,14.80
2018-04-10T19:09:03.913Z,14.80
2018-04-10T19:11:30.926Z,14.80
2018-04-10T19:13:57.925Z,14.80
2018-04-10T19:16:24.929Z,14.80
2018-04-10T19:18:52.700Z,14.80
2018-04-10T19:21:20.457Z,14.80
2018-04-10T19:23:48.238Z,14.80
2018-04-10T19:26:15.233Z,14.80
2018-04-10T19:28:42.227Z,14.80
2018-04-10T19:31:09.226Z,14.80
2018-04-10T19:33:36.223Z,14.80
2018-04-10T19:36:03.221Z,14.80
2018-04-10T19:38:30.230Z,14.80
2018-04-10T19:40:57.230Z,14.80
2018-04-10T19:43:24.234Z,14.80
2018-04-10T19:45:51.240Z,14.90
2018-04-10T19:48:19.055Z,14.80
2018-04-10T19:50:46.019Z,14.80
2018-04-10T19:53:13.053Z,14.80
2018-04-10T19:55:40.042Z,14.80
2018-04-10T19:58:07.849Z,14.80
2018-04-10T20:00:34.916Z,14.80
2018-04-10T20:03:01.905Z,14.80
2018-04-10T20:05:28.910Z,14.80
2018-04-10T20:07:55.913Z,14.80
2018-04-10T20:10:22.905Z,14.80
2018-04-10T20:12:49.901Z,14.80
2018-04-10T20:15:16.897Z,14.80
2018-04-10T20:17:43.900Z,14.80
2018-04-10T20:20:10.905Z,14.80
2018-04-10T20:22:38.663Z,14.80
2018-04-10T20:25:05.658Z,14.80
2018-04-10T20:27:32.652Z,14.80
2018-04-10T20:30:00.605Z,14.80
2018-04-10T20:32:27.600Z,14.80
2018-04-10T20:34:54.610Z,14.80
2018-04-10T20:37:21.609Z,14.90
2018-04-10T20:39:48.647Z,14.90
2018-04-10T20:42:15.641Z,14.90
2018-04-10T20:44:42.642Z,14.80
2018-04-10T20:47:09.638Z,14.80
2018-04-10T20:49:36.649Z,14.80
2018-04-10T20:52:03.640Z,14.80
2018-04-10T20:54:31.394Z,14.80
2018-04-10T20:56:58.394Z,14.80
2018-04-10T20:59:25.386Z,14.80
2018-04-10T21:01:52.386Z,14.80
2018-04-10T21:04:19.383Z,14.80
2018-04-10T21:06:46.379Z,14.80
2018-04-10T21:09:13.373Z,14.80
2018-04-10T21:11:41.142Z,14.80
2018-04-10T21:14:08.907Z,14.80
2018-04-10T21:16:36.673Z,14.80
2018-04-10T21:19:04.429Z,14.80
2018-04-10T21:21:32.201Z,14.80
2018-04-10T21:23:59.966Z,14.80
2018-04-10T21:26:27.741Z,14.80
2018-04-10T21:28:54.734Z,14.80
2018-04-10T21:31:21.742Z,14.80
2018-04-10T21:33:49.487Z,14.80
2018-04-10T21:36:17.242Z,14.80
2018-04-10T21:38:44.996Z,14.80
2018-04-10T21:41:11.993Z,14.80
2018-04-10T21:43:38.995Z,14.80
2018-04-10T21:46:06.764Z,14.80
2018-04-10T21:48:34.528Z,14.80
2018-04-10T21:51:02.295Z,14.80
2018-04-10T21:53:30.062Z,14.80
2018-04-10T21:55:57.822Z,14.80
2018-04-10T21:58:25.576Z,14.80
2018-04-10T22:00:53.333Z,14.80
2018-04-10T22:03:20.337Z,14.80
2018-04-10T22:05:47.342Z,14.80
2018-04-10T22:08:15.106Z,14.80
2018-04-10T22:10:42.869Z,14.80
2018-04-10T22:13:10.637Z,14.80
2018-04-10T22:15:38.389Z,14.80
2018-04-10T22:18:06.162Z,14.80
2018-04-10T22:20:33.917Z,14.80
2018-04-10T22:23:01.679Z,14.80
2018-04-10T22:25:28.665Z,14.80
2018-04-10T22:27:55.661Z,14.80
2018-04-10T22:30:22.681Z,14.80
2018-04-10T22:32:49.634Z,14.80
2018-04-10T22:35:17.391Z,14.80
2018-04-10T22:37:45.154Z,14.80
2018-04-10T22:40:12.151Z,14.80
2018-04-10T22:42:39.146Z,14.80
2018-04-10T22:45:06.920Z,14.80
2018-04-10T22:47:34.684Z,14.80
2018-04-10T22:50:02.445Z,14.80
2018-04-10T22:52:30.205Z,14.80
2018-04-10T22:54:57.978Z,14.80
2018-04-10T22:57:25.738Z,14.80
2018-04-10T22:59:53.506Z,14.80
2018-04-10T23:02:21.270Z,14.80
2018-04-10T23:04:49.043Z,14.80
2018-04-10T23:07:16.038Z,14.80
2018-04-10T23:09:43.822Z,14.80
2018-04-10T23:12:10.814Z,14.80
2018-04-10T23:14:37.811Z,14.80
2018-04-10T23:17:04.803Z,14.80
2018-04-10T23:19:32.558Z,14.80
2018-04-10T23:22:00.317Z,14.80
2018-04-10T23:24:27.314Z,14.80
2018-04-10T23:26:54.314Z,14.80
2018-04-10T23:29:22.077Z,14.80
2018-04-10T23:31:49.071Z,14.80
2018-04-10T23:34:16.070Z,14.80
2018-04-10T23:36:43.058Z,14.80
2018-04-10T23:39:10.049Z,14.80
2018-04-10T23:41:37.046Z,14.80
2018-04-10T23:44:04.039Z,14.80
2018-04-10T23:46:31.029Z,14.80
2018-04-10T23:48:58.033Z,14.80
2018-04-10T23:51:25.034Z,14.80
2018-04-10T23:53:52.021Z,14.80
2018-04-10T23:56:19.026Z,14.80
2018-04-10T23:58:46.018Z,14.80
